sensor_id;sensor_type;location;lat;lon;timestamp;P1;durP1;ratioP1;P2;durP2;ratioP2
25153;SDS011;47555;51.038;6.280;2022-08-05T00:00:35;4.22;;;2.53;;
25153;SDS011;47555;51.038;6.280;2022-08-05T00:03:00;4.05;;;2.67;;
25153;SDS011;47555;51.038;6.280;2022-08-05T00:05:26;3.97;;;2.25;;
25153;SDS011;47555;51.038;6.280;2022-08-05T00:07:51;3.08;;;2.35;;
25153;SDS011;47555;51.038;6.280;2022-08-05T00:10:17;2.80;;;2.60;;
25153;SDS011;47555;51.038;6.280;2022-08-05T00:12:43;3.20;;;2.47;;
25153;SDS011;47555;51.038;6.280;2022-08-05T00:15:08;2.95;;;2.28;;
25153;SDS011;47555;51.038;6.280;2022-08-05T00:17:34;4.82;;;2.95;;
25153;SDS011;47555;51.038;6.280;2022-08-05T00:19:59;7.68;;;3.08;;
25153;SDS011;47555;51.038;6.280;2022-08-05T00:22:25;4.07;;;2.70;;
25153;SDS011;47555;51.038;6.280;2022-08-05T00:24:50;4.40;;;2.80;;
25153;SDS011;47555;51.038;6.280;2022-08-05T00:27:16;4.03;;;3.20;;
25153;SDS011;47555;51.038;6.280;2022-08-05T00:29:41;4.75;;;3.25;;
25153;SDS011;47555;51.038;6.280;2022-08-05T00:32:07;5.15;;;2.88;;
25153;SDS011;47555;51.038;6.280;2022-08-05T00:34:36;5.90;;;2.80;;
25153;SDS011;47555;51.038;6.280;2022-08-05T00:37:03;3.60;;;2.90;;
25153;SDS011;47555;51.038;6.280;2022-08-05T00:39:28;6.07;;;2.75;;
25153;SDS011;47555;51.038;6.280;2022-08-05T00:41:54;2.88;;;2.58;;
25153;SDS011;47555;51.038;6.280;2022-08-05T00:44:20;5.63;;;2.90;;
25153;SDS011;47555;51.038;6.280;2022-08-05T00:46:45;4.47;;;2.63;;
25153;SDS011;47555;51.038;6.280;2022-08-05T00:49:11;4.95;;;3.53;;
25153;SDS011;47555;51.038;6.280;2022-08-05T00:51:36;4.57;;;3.53;;
25153;SDS011;47555;51.038;6.280;2022-08-05T00:54:02;4.43;;;3.65;;
25153;SDS011;47555;51.038;6.280;2022-08-05T00:56:28;4.43;;;2.80;;
25153;SDS011;47555;51.038;6.280;2022-08-05T00:58:53;6.63;;;3.70;;
25153;SDS011;47555;51.038;6.280;2022-08-05T01:01:19;3.88;;;3.28;;
25153;SDS011;47555;51.038;6.280;2022-08-05T01:03:44;4.30;;;3.60;;
25153;SDS011;47555;51.038;6.280;2022-08-05T01:06:10;6.97;;;4.03;;
25153;SDS011;47555;51.038;6.280;2022-08-05T01:08:36;5.70;;;3.95;;
25153;SDS011;47555;51.038;6.280;2022-08-05T01:11:03;9.45;;;3.95;;
25153;SDS011;47555;51.038;6.280;2022-08-05T01:16:21;7.80;;;4.65;;
25153;SDS011;47555;51.038;6.280;2022-08-05T01:18:58;7.78;;;4.43;;
25153;SDS011;47555;51.038;6.280;2022-08-05T01:21:55;7.47;;;5.07;;
25153;SDS011;47555;51.038;6.280;2022-08-05T01:24:38;7.85;;;4.70;;
25153;SDS011;47555;51.038;6.280;2022-08-05T01:30:08;4.65;;;3.95;;
25153;SDS011;47555;51.038;6.280;2022-08-05T01:32:34;6.95;;;4.35;;
25153;SDS011;47555;51.038;6.280;2022-08-05T01:35:08;7.80;;;5.13;;
25153;SDS011;47555;51.038;6.280;2022-08-05T01:37:45;8.20;;;4.57;;
25153;SDS011;47555;51.038;6.280;2022-08-05T01:40:20;9.65;;;4.68;;
25153;SDS011;47555;51.038;6.280;2022-08-05T01:42:47;6.82;;;4.88;;
25153;SDS011;47555;51.038;6.280;2022-08-05T01:45:16;7.78;;;4.82;;
25153;SDS011;47555;51.038;6.280;2022-08-05T01:47:44;8.20;;;4.68;;
25153;SDS011;47555;51.038;6.280;2022-08-05T01:50:16;6.18;;;5.07;;
25153;SDS011;47555;51.038;6.280;2022-08-05T01:52:46;9.82;;;5.53;;
25153;SDS011;47555;51.038;6.280;2022-08-05T01:55:14;8.70;;;4.63;;
25153;SDS011;47555;51.038;6.280;2022-08-05T01:57:42;8.40;;;5.00;;
25153;SDS011;47555;51.038;6.280;2022-08-05T02:00:11;7.72;;;4.88;;
25153;SDS011;47555;51.038;6.280;2022-08-05T02:02:51;6.70;;;4.28;;
25153;SDS011;47555;51.038;6.280;2022-08-05T02:05:29;9.85;;;4.88;;
25153;SDS011;47555;51.038;6.280;2022-08-05T02:07:57;9.43;;;6.07;;
25153;SDS011;47555;51.038;6.280;2022-08-05T02:10:24;9.57;;;5.47;;
25153;SDS011;47555;51.038;6.280;2022-08-05T02:12:53;8.35;;;5.13;;
25153;SDS011;47555;51.038;6.280;2022-08-05T02:15:33;8.52;;;5.47;;
25153;SDS011;47555;51.038;6.280;2022-08-05T02:18:04;11.75;;;5.30;;
25153;SDS011;47555;51.038;6.280;2022-08-05T02:20:58;6.57;;;4.90;;
25153;SDS011;47555;51.038;6.280;2022-08-05T02:23:23;6.90;;;5.28;;
25153;SDS011;47555;51.038;6.280;2022-08-05T02:25:53;7.25;;;4.82;;
25153;SDS011;47555;51.038;6.280;2022-08-05T02:28:25;7.75;;;4.63;;
25153;SDS011;47555;51.038;6.280;2022-08-05T02:30:55;6.80;;;5.32;;
25153;SDS011;47555;51.038;6.280;2022-08-05T02:33:36;8.02;;;5.00;;
25153;SDS011;47555;51.038;6.280;2022-08-05T02:36:07;8.73;;;5.50;;
25153;SDS011;47555;51.038;6.280;2022-08-05T02:38:35;7.35;;;4.85;;
25153;SDS011;47555;51.038;6.280;2022-08-05T02:41:02;10.20;;;5.90;;
25153;SDS011;47555;51.038;6.280;2022-08-05T02:43:29;10.00;;;6.10;;
25153;SDS011;47555;51.038;6.280;2022-08-05T02:45:56;8.68;;;5.90;;
25153;SDS011;47555;51.038;6.280;2022-08-05T02:48:22;9.02;;;6.07;;
25153;SDS011;47555;51.038;6.280;2022-08-05T02:50:49;8.43;;;5.53;;
25153;SDS011;47555;51.038;6.280;2022-08-05T02:53:16;10.63;;;5.97;;
25153;SDS011;47555;51.038;6.280;2022-08-05T02:55:46;6.95;;;5.60;;
25153;SDS011;47555;51.038;6.280;2022-08-05T02:58:13;7.82;;;5.88;;
25153;SDS011;47555;51.038;6.280;2022-08-05T03:00:40;9.82;;;5.78;;
25153;SDS011;47555;51.038;6.280;2022-08-05T03:03:08;8.60;;;5.65;;
25153;SDS011;47555;51.038;6.280;2022-08-05T03:05:35;8.75;;;5.45;;
25153;SDS011;47555;51.038;6.280;2022-08-05T03:08:03;10.93;;;6.75;;
25153;SDS011;47555;51.038;6.280;2022-08-05T03:10:29;9.60;;;5.63;;
25153;SDS011;47555;51.038;6.280;2022-08-05T03:12:55;8.98;;;6.32;;
25153;SDS011;47555;51.038;6.280;2022-08-05T03:15:20;9.63;;;6.05;;
25153;SDS011;47555;51.038;6.280;2022-08-05T03:17:47;8.98;;;6.25;;
25153;SDS011;47555;51.038;6.280;2022-08-05T03:20:12;8.88;;;6.15;;
25153;SDS011;47555;51.038;6.280;2022-08-05T03:22:38;9.95;;;7.93;;
25153;SDS011;47555;51.038;6.280;2022-08-05T03:25:03;10.63;;;6.65;;
25153;SDS011;47555;51.038;6.280;2022-08-05T03:27:29;9.40;;;6.88;;
25153;SDS011;47555;51.038;6.280;2022-08-05T03:29:56;11.27;;;6.70;;
25153;SDS011;47555;51.038;6.280;2022-08-05T03:32:22;12.05;;;6.97;;
25153;SDS011;47555;51.038;6.280;2022-08-05T03:34:48;10.05;;;7.30;;
25153;SDS011;47555;51.038;6.280;2022-08-05T03:37:14;11.13;;;7.00;;
25153;SDS011;47555;51.038;6.280;2022-08-05T03:39:50;10.10;;;7.03;;
25153;SDS011;47555;51.038;6.280;2022-08-05T03:42:16;10.15;;;6.63;;
25153;SDS011;47555;51.038;6.280;2022-08-05T03:44:42;8.18;;;6.47;;
25153;SDS011;47555;51.038;6.280;2022-08-05T03:47:07;12.68;;;7.70;;
25153;SDS011;47555;51.038;6.280;2022-08-05T03:49:33;14.23;;;9.27;;
25153;SDS011;47555;51.038;6.280;2022-08-05T03:52:00;13.15;;;8.32;;
25153;SDS011;47555;51.038;6.280;2022-08-05T03:57:03;12.48;;;9.35;;
25153;SDS011;47555;51.038;6.280;2022-08-05T03:59:34;12.68;;;9.15;;
25153;SDS011;47555;51.038;6.280;2022-08-05T04:04:31;15.10;;;9.43;;
25153;SDS011;47555;51.038;6.280;2022-08-05T04:06:59;16.73;;;9.48;;
25153;SDS011;47555;51.038;6.280;2022-08-05T04:09:25;14.15;;;9.15;;
25153;SDS011;47555;51.038;6.280;2022-08-05T04:11:51;15.48;;;8.95;;
25153;SDS011;47555;51.038;6.280;2022-08-05T04:14:17;15.40;;;9.35;;
25153;SDS011;47555;51.038;6.280;2022-08-05T04:16:43;12.57;;;8.93;;
25153;SDS011;47555;51.038;6.280;2022-08-05T04:19:12;12.52;;;8.57;;
25153;SDS011;47555;51.038;6.280;2022-08-05T04:21:38;13.30;;;9.35;;
25153;SDS011;47555;51.038;6.280;2022-08-05T04:24:04;13.95;;;9.10;;
25153;SDS011;47555;51.038;6.280;2022-08-05T04:26:30;13.82;;;8.52;;
25153;SDS011;47555;51.038;6.280;2022-08-05T04:28:56;17.92;;;10.68;;
25153;SDS011;47555;51.038;6.280;2022-08-05T04:31:21;15.88;;;11.00;;
25153;SDS011;47555;51.038;6.280;2022-08-05T04:33:47;17.55;;;11.52;;
25153;SDS011;47555;51.038;6.280;2022-08-05T04:36:13;19.55;;;11.90;;
25153;SDS011;47555;51.038;6.280;2022-08-05T04:38:39;16.00;;;10.70;;
25153;SDS011;47555;51.038;6.280;2022-08-05T04:41:07;16.67;;;10.48;;
25153;SDS011;47555;51.038;6.280;2022-08-05T04:43:32;17.58;;;10.68;;
25153;SDS011;47555;51.038;6.280;2022-08-05T04:45:58;17.30;;;10.27;;
25153;SDS011;47555;51.038;6.280;2022-08-05T04:48:23;16.27;;;9.98;;
25153;SDS011;47555;51.038;6.280;2022-08-05T04:50:49;15.45;;;10.45;;
25153;SDS011;47555;51.038;6.280;2022-08-05T04:53:15;18.35;;;11.63;;
25153;SDS011;47555;51.038;6.280;2022-08-05T04:55:42;16.67;;;10.57;;
25153;SDS011;47555;51.038;6.280;2022-08-05T04:58:10;16.92;;;10.75;;
25153;SDS011;47555;51.038;6.280;2022-08-05T05:00:37;14.05;;;9.18;;
25153;SDS011;47555;51.038;6.280;2022-08-05T05:03:04;17.73;;;10.57;;
25153;SDS011;47555;51.038;6.280;2022-08-05T05:05:31;14.35;;;10.15;;
25153;SDS011;47555;51.038;6.280;2022-08-05T05:08:01;19.52;;;12.25;;
25153;SDS011;47555;51.038;6.280;2022-08-05T05:10:29;20.13;;;12.80;;
25153;SDS011;47555;51.038;6.280;2022-08-05T05:12:56;19.33;;;12.40;;
25153;SDS011;47555;51.038;6.280;2022-08-05T05:15:22;15.02;;;9.55;;
25153;SDS011;47555;51.038;6.280;2022-08-05T05:17:47;16.42;;;10.95;;
25153;SDS011;47555;51.038;6.280;2022-08-05T05:20:13;13.05;;;9.82;;
25153;SDS011;47555;51.038;6.280;2022-08-05T05:22:39;16.15;;;10.80;;
25153;SDS011;47555;51.038;6.280;2022-08-05T05:25:05;15.80;;;10.15;;
25153;SDS011;47555;51.038;6.280;2022-08-05T05:27:33;15.40;;;11.40;;
25153;SDS011;47555;51.038;6.280;2022-08-05T05:30:00;15.27;;;10.63;;
25153;SDS011;47555;51.038;6.280;2022-08-05T05:32:25;16.38;;;11.32;;
25153;SDS011;47555;51.038;6.280;2022-08-05T05:34:51;16.65;;;11.20;;
25153;SDS011;47555;51.038;6.280;2022-08-05T05:37:17;15.77;;;10.43;;
25153;SDS011;47555;51.038;6.280;2022-08-05T05:39:42;16.65;;;11.32;;
25153;SDS011;47555;51.038;6.280;2022-08-05T05:42:08;15.15;;;9.70;;
25153;SDS011;47555;51.038;6.280;2022-08-05T05:44:33;14.48;;;9.55;;
25153;SDS011;47555;51.038;6.280;2022-08-05T05:46:59;16.05;;;9.95;;
25153;SDS011;47555;51.038;6.280;2022-08-05T05:49:25;15.05;;;10.35;;
25153;SDS011;47555;51.038;6.280;2022-08-05T05:51:51;16.70;;;10.48;;
25153;SDS011;47555;51.038;6.280;2022-08-05T05:54:20;13.88;;;10.10;;
25153;SDS011;47555;51.038;6.280;2022-08-05T05:56:45;13.15;;;10.18;;
25153;SDS011;47555;51.038;6.280;2022-08-05T05:59:11;18.60;;;10.95;;
25153;SDS011;47555;51.038;6.280;2022-08-05T06:01:37;18.13;;;11.02;;
25153;SDS011;47555;51.038;6.280;2022-08-05T06:04:07;13.45;;;9.93;;
25153;SDS011;47555;51.038;6.280;2022-08-05T06:06:34;12.38;;;8.88;;
25153;SDS011;47555;51.038;6.280;2022-08-05T06:09:00;17.42;;;10.98;;
25153;SDS011;47555;51.038;6.280;2022-08-05T06:11:30;17.67;;;10.82;;
25153;SDS011;47555;51.038;6.280;2022-08-05T06:13:56;17.88;;;10.43;;
25153;SDS011;47555;51.038;6.280;2022-08-05T06:16:22;16.75;;;10.82;;
25153;SDS011;47555;51.038;6.280;2022-08-05T06:18:48;15.45;;;10.20;;
25153;SDS011;47555;51.038;6.280;2022-08-05T06:21:14;13.80;;;9.13;;
25153;SDS011;47555;51.038;6.280;2022-08-05T06:23:39;15.10;;;9.43;;
25153;SDS011;47555;51.038;6.280;2022-08-05T06:26:05;16.33;;;10.13;;
25153;SDS011;47555;51.038;6.280;2022-08-05T06:28:30;16.52;;;9.75;;
25153;SDS011;47555;51.038;6.280;2022-08-05T06:30:56;14.93;;;8.73;;
25153;SDS011;47555;51.038;6.280;2022-08-05T06:33:21;16.13;;;8.75;;
25153;SDS011;47555;51.038;6.280;2022-08-05T06:35:47;14.30;;;8.35;;
25153;SDS011;47555;51.038;6.280;2022-08-05T06:38:12;16.75;;;7.93;;
25153;SDS011;47555;51.038;6.280;2022-08-05T06:40:38;12.50;;;8.35;;
25153;SDS011;47555;51.038;6.280;2022-08-05T06:43:06;12.38;;;8.02;;
25153;SDS011;47555;51.038;6.280;2022-08-05T06:45:31;11.93;;;7.95;;
25153;SDS011;47555;51.038;6.280;2022-08-05T06:47:57;11.32;;;8.23;;
25153;SDS011;47555;51.038;6.280;2022-08-05T06:50:22;12.20;;;7.97;;
25153;SDS011;47555;51.038;6.280;2022-08-05T06:52:48;10.20;;;7.45;;
25153;SDS011;47555;51.038;6.280;2022-08-05T06:55:14;15.30;;;9.07;;
25153;SDS011;47555;51.038;6.280;2022-08-05T06:57:41;12.77;;;7.72;;
25153;SDS011;47555;51.038;6.280;2022-08-05T07:00:07;11.13;;;7.32;;
25153;SDS011;47555;51.038;6.280;2022-08-05T07:02:39;11.82;;;7.82;;
25153;SDS011;47555;51.038;6.280;2022-08-05T07:05:06;10.88;;;7.30;;
25153;SDS011;47555;51.038;6.280;2022-08-05T07:07:32;10.63;;;7.07;;
25153;SDS011;47555;51.038;6.280;2022-08-05T07:09:57;10.45;;;7.20;;
25153;SDS011;47555;51.038;6.280;2022-08-05T07:12:23;12.90;;;7.70;;
25153;SDS011;47555;51.038;6.280;2022-08-05T07:15:07;10.80;;;6.82;;
25153;SDS011;47555;51.038;6.280;2022-08-05T07:17:52;11.25;;;7.43;;
25153;SDS011;47555;51.038;6.280;2022-08-05T07:20:17;12.45;;;7.32;;
25153;SDS011;47555;51.038;6.280;2022-08-05T07:22:43;11.35;;;7.30;;
25153;SDS011;47555;51.038;6.280;2022-08-05T07:25:08;12.77;;;7.63;;
25153;SDS011;47555;51.038;6.280;2022-08-05T07:27:34;11.30;;;7.97;;
25153;SDS011;47555;51.038;6.280;2022-08-05T07:30:00;8.95;;;6.85;;
25153;SDS011;47555;51.038;6.280;2022-08-05T07:32:25;10.05;;;6.82;;
25153;SDS011;47555;51.038;6.280;2022-08-05T07:34:51;12.55;;;7.65;;
25153;SDS011;47555;51.038;6.280;2022-08-05T07:37:17;10.68;;;6.82;;
25153;SDS011;47555;51.038;6.280;2022-08-05T07:39:43;8.35;;;6.13;;
25153;SDS011;47555;51.038;6.280;2022-08-05T07:42:08;9.88;;;6.53;;
25153;SDS011;47555;51.038;6.280;2022-08-05T07:44:34;9.70;;;5.50;;
25153;SDS011;47555;51.038;6.280;2022-08-05T07:46:59;13.27;;;7.20;;
25153;SDS011;47555;51.038;6.280;2022-08-05T07:49:25;9.45;;;6.03;;
25153;SDS011;47555;51.038;6.280;2022-08-05T07:51:50;10.98;;;6.32;;
25153;SDS011;47555;51.038;6.280;2022-08-05T07:54:16;8.98;;;6.85;;
25153;SDS011;47555;51.038;6.280;2022-08-05T07:56:41;8.30;;;5.93;;
25153;SDS011;47555;51.038;6.280;2022-08-05T07:59:07;10.00;;;5.63;;
25153;SDS011;47555;51.038;6.280;2022-08-05T08:01:32;9.68;;;5.22;;
25153;SDS011;47555;51.038;6.280;2022-08-05T08:03:58;10.30;;;5.80;;
25153;SDS011;47555;51.038;6.280;2022-08-05T08:06:23;8.82;;;6.05;;
25153;SDS011;47555;51.038;6.280;2022-08-05T08:08:49;7.05;;;5.28;;
25153;SDS011;47555;51.038;6.280;2022-08-05T08:11:14;7.65;;;5.10;;
25153;SDS011;47555;51.038;6.280;2022-08-05T08:13:40;9.40;;;5.93;;
25153;SDS011;47555;51.038;6.280;2022-08-05T08:16:06;8.55;;;4.88;;
25153;SDS011;47555;51.038;6.280;2022-08-05T08:18:32;6.70;;;5.13;;
25153;SDS011;47555;51.038;6.280;2022-08-05T08:20:57;7.00;;;4.63;;
25153;SDS011;47555;51.038;6.280;2022-08-05T08:23:23;7.75;;;4.90;;
25153;SDS011;47555;51.038;6.280;2022-08-05T08:25:50;8.85;;;5.22;;
25153;SDS011;47555;51.038;6.280;2022-08-05T08:28:15;6.20;;;4.55;;
25153;SDS011;47555;51.038;6.280;2022-08-05T08:30:41;7.15;;;4.13;;
25153;SDS011;47555;51.038;6.280;2022-08-05T08:33:07;9.20;;;4.95;;
25153;SDS011;47555;51.038;6.280;2022-08-05T08:35:35;7.57;;;4.45;;
25153;SDS011;47555;51.038;6.280;2022-08-05T08:38:01;7.13;;;4.70;;
25153;SDS011;47555;51.038;6.280;2022-08-05T08:40:26;7.80;;;4.68;;
25153;SDS011;47555;51.038;6.280;2022-08-05T08:42:52;7.18;;;4.38;;
25153;SDS011;47555;51.038;6.280;2022-08-05T08:45:19;6.63;;;4.38;;
25153;SDS011;47555;51.038;6.280;2022-08-05T08:47:45;7.38;;;4.10;;
25153;SDS011;47555;51.038;6.280;2022-08-05T08:50:14;6.78;;;4.70;;
25153;SDS011;47555;51.038;6.280;2022-08-05T08:52:45;4.93;;;4.18;;
25153;SDS011;47555;51.038;6.280;2022-08-05T08:55:17;5.07;;;3.85;;
25153;SDS011;47555;51.038;6.280;2022-08-05T08:57:43;6.22;;;4.13;;
25153;SDS011;47555;51.038;6.280;2022-08-05T09:00:10;5.25;;;3.88;;
25153;SDS011;47555;51.038;6.280;2022-08-05T09:02:36;5.43;;;3.85;;
25153;SDS011;47555;51.038;6.280;2022-08-05T09:05:02;4.57;;;3.75;;
25153;SDS011;47555;51.038;6.280;2022-08-05T09:07:28;7.82;;;3.67;;
25153;SDS011;47555;51.038;6.280;2022-08-05T09:09:54;7.10;;;3.95;;
25153;SDS011;47555;51.038;6.280;2022-08-05T09:12:20;6.07;;;4.05;;
25153;SDS011;47555;51.038;6.280;2022-08-05T09:14:45;4.53;;;3.33;;
25153;SDS011;47555;51.038;6.280;2022-08-05T09:17:11;5.30;;;4.20;;
25153;SDS011;47555;51.038;6.280;2022-08-05T09:19:37;5.32;;;3.35;;
25153;SDS011;47555;51.038;6.280;2022-08-05T09:22:03;6.05;;;3.67;;
25153;SDS011;47555;51.038;6.280;2022-08-05T09:24:29;4.55;;;3.42;;
25153;SDS011;47555;51.038;6.280;2022-08-05T09:26:55;4.40;;;3.50;;
25153;SDS011;47555;51.038;6.280;2022-08-05T09:29:41;5.65;;;3.90;;
25153;SDS011;47555;51.038;6.280;2022-08-05T09:32:11;5.25;;;3.78;;
25153;SDS011;47555;51.038;6.280;2022-08-05T09:37:36;5.97;;;3.65;;
25153;SDS011;47555;51.038;6.280;2022-08-05T09:40:02;7.28;;;3.95;;
25153;SDS011;47555;51.038;6.280;2022-08-05T09:42:37;8.07;;;4.80;;
25153;SDS011;47555;51.038;6.280;2022-08-05T09:45:06;4.85;;;4.00;;
25153;SDS011;47555;51.038;6.280;2022-08-05T09:47:33;8.35;;;3.78;;
25153;SDS011;47555;51.038;6.280;2022-08-05T09:49:59;3.92;;;3.30;;
25153;SDS011;47555;51.038;6.280;2022-08-05T09:57:34;3.75;;;3.08;;
25153;SDS011;47555;51.038;6.280;2022-08-05T10:02:42;5.75;;;3.40;;
25153;SDS011;47555;51.038;6.280;2022-08-05T10:05:15;8.45;;;3.55;;
25153;SDS011;47555;51.038;6.280;2022-08-05T10:07:53;6.93;;;3.28;;
25153;SDS011;47555;51.038;6.280;2022-08-05T10:10:22;5.68;;;3.15;;
25153;SDS011;47555;51.038;6.280;2022-08-05T10:13:01;4.28;;;3.17;;
25153;SDS011;47555;51.038;6.280;2022-08-05T10:15:32;5.13;;;3.03;;
25153;SDS011;47555;51.038;6.280;2022-08-05T10:18:13;6.13;;;3.20;;
25153;SDS011;47555;51.038;6.280;2022-08-05T10:20:50;9.32;;;3.72;;
25153;SDS011;47555;51.038;6.280;2022-08-05T10:23:19;5.82;;;3.75;;
25153;SDS011;47555;51.038;6.280;2022-08-05T10:25:56;6.30;;;3.85;;
25153;SDS011;47555;51.038;6.280;2022-08-05T10:28:22;5.72;;;3.70;;
25153;SDS011;47555;51.038;6.280;2022-08-05T10:30:49;5.03;;;3.45;;
25153;SDS011;47555;51.038;6.280;2022-08-05T10:33:16;4.97;;;3.67;;
25153;SDS011;47555;51.038;6.280;2022-08-05T10:35:42;6.38;;;3.72;;
25153;SDS011;47555;51.038;6.280;2022-08-05T10:38:08;8.35;;;4.03;;
25153;SDS011;47555;51.038;6.280;2022-08-05T10:46:12;5.20;;;4.18;;
25153;SDS011;47555;51.038;6.280;2022-08-05T10:48:40;5.03;;;4.07;;
25153;SDS011;47555;51.038;6.280;2022-08-05T10:51:11;5.28;;;4.13;;
25153;SDS011;47555;51.038;6.280;2022-08-05T10:53:39;6.47;;;3.70;;
25153;SDS011;47555;51.038;6.280;2022-08-05T10:56:15;5.63;;;3.97;;
25153;SDS011;47555;51.038;6.280;2022-08-05T10:58:46;4.43;;;3.55;;
25153;SDS011;47555;51.038;6.280;2022-08-05T11:01:12;6.05;;;3.47;;
25153;SDS011;47555;51.038;6.280;2022-08-05T11:03:58;4.65;;;3.13;;
25153;SDS011;47555;51.038;6.280;2022-08-05T11:06:35;6.00;;;3.22;;
25153;SDS011;47555;51.038;6.280;2022-08-05T11:09:26;4.65;;;3.03;;
25153;SDS011;47555;51.038;6.280;2022-08-05T11:12:00;5.88;;;3.58;;
25153;SDS011;47555;51.038;6.280;2022-08-05T11:14:32;4.28;;;3.05;;
25153;SDS011;47555;51.038;6.280;2022-08-05T11:19:57;4.55;;;3.08;;
25153;SDS011;47555;51.038;6.280;2022-08-05T11:27:53;3.20;;;2.90;;
25153;SDS011;47555;51.038;6.280;2022-08-05T11:30:20;5.50;;;3.20;;
25153;SDS011;47555;51.038;6.280;2022-08-05T11:32:45;4.55;;;2.92;;
25153;SDS011;47555;51.038;6.280;2022-08-05T11:35:50;4.97;;;3.17;;
25153;SDS011;47555;51.038;6.280;2022-08-05T11:38:19;3.55;;;3.25;;
25153;SDS011;47555;51.038;6.280;2022-08-05T11:41:13;5.95;;;3.63;;
25153;SDS011;47555;51.038;6.280;2022-08-05T11:44:22;5.45;;;3.70;;
25153;SDS011;47555;51.038;6.280;2022-08-05T11:49:01;4.40;;;3.50;;
25153;SDS011;47555;51.038;6.280;2022-08-05T11:51:28;4.20;;;3.33;;
25153;SDS011;47555;51.038;6.280;2022-08-05T11:53:54;5.85;;;4.13;;
25153;SDS011;47555;51.038;6.280;2022-08-05T11:56:20;6.00;;;3.55;;
25153;SDS011;47555;51.038;6.280;2022-08-05T11:58:46;6.97;;;3.85;;
25153;SDS011;47555;51.038;6.280;2022-08-05T12:01:14;6.57;;;4.38;;
25153;SDS011;47555;51.038;6.280;2022-08-05T12:03:59;4.40;;;4.00;;
25153;SDS011;47555;51.038;6.280;2022-08-05T12:06:25;5.32;;;3.70;;
25153;SDS011;47555;51.038;6.280;2022-08-05T12:08:56;5.38;;;3.95;;
25153;SDS011;47555;51.038;6.280;2022-08-05T12:11:23;5.22;;;3.78;;
25153;SDS011;47555;51.038;6.280;2022-08-05T12:13:57;5.35;;;3.42;;
25153;SDS011;47555;51.038;6.280;2022-08-05T12:16:30;7.47;;;3.28;;
25153;SDS011;47555;51.038;6.280;2022-08-05T12:18:56;6.72;;;4.25;;
25153;SDS011;47555;51.038;6.280;2022-08-05T12:21:32;5.65;;;3.83;;
25153;SDS011;47555;51.038;6.280;2022-08-05T12:24:03;6.30;;;3.50;;
25153;SDS011;47555;51.038;6.280;2022-08-05T12:29:01;3.95;;;3.22;;
25153;SDS011;47555;51.038;6.280;2022-08-05T12:31:30;6.13;;;3.13;;
25153;SDS011;47555;51.038;6.280;2022-08-05T12:34:05;3.83;;;2.92;;
25153;SDS011;47555;51.038;6.280;2022-08-05T12:36:33;5.03;;;3.15;;
25153;SDS011;47555;51.038;6.280;2022-08-05T12:38:59;3.83;;;2.95;;
25153;SDS011;47555;51.038;6.280;2022-08-05T12:41:29;3.83;;;2.75;;
25153;SDS011;47555;51.038;6.280;2022-08-05T12:43:57;4.38;;;3.00;;
25153;SDS011;47555;51.038;6.280;2022-08-05T12:46:25;4.35;;;2.40;;
25153;SDS011;47555;51.038;6.280;2022-08-05T12:51:48;4.75;;;2.70;;
25153;SDS011;47555;51.038;6.280;2022-08-05T12:54:23;5.45;;;3.13;;
25153;SDS011;47555;51.038;6.280;2022-08-05T12:56:50;5.22;;;3.63;;
25153;SDS011;47555;51.038;6.280;2022-08-05T12:59:22;4.20;;;2.40;;
25153;SDS011;47555;51.038;6.280;2022-08-05T13:02:05;3.25;;;1.80;;
25153;SDS011;47555;51.038;6.280;2022-08-05T13:04:32;2.90;;;1.60;;
25153;SDS011;47555;51.038;6.280;2022-08-05T13:07:02;4.15;;;1.50;;
25153;SDS011;47555;51.038;6.280;2022-08-05T13:09:36;2.70;;;1.50;;
25153;SDS011;47555;51.038;6.280;2022-08-05T13:12:08;1.60;;;1.42;;
25153;SDS011;47555;51.038;6.280;2022-08-05T13:17:06;1.75;;;1.65;;
25153;SDS011;47555;51.038;6.280;2022-08-05T13:19:38;1.95;;;1.50;;
25153;SDS011;47555;51.038;6.280;2022-08-05T13:22:04;3.03;;;1.80;;
25153;SDS011;47555;51.038;6.280;2022-08-05T13:24:29;2.28;;;1.77;;
25153;SDS011;47555;51.038;6.280;2022-08-05T13:26:55;4.15;;;2.17;;
25153;SDS011;47555;51.038;6.280;2022-08-05T13:29:20;1.98;;;1.77;;
25153;SDS011;47555;51.038;6.280;2022-08-05T13:31:46;2.53;;;2.10;;
25153;SDS011;47555;51.038;6.280;2022-08-05T13:34:11;2.60;;;1.70;;
25153;SDS011;47555;51.038;6.280;2022-08-05T13:36:37;3.35;;;2.00;;
25153;SDS011;47555;51.038;6.280;2022-08-05T13:39:03;3.53;;;1.80;;
25153;SDS011;47555;51.038;6.280;2022-08-05T13:41:30;2.78;;;1.80;;
25153;SDS011;47555;51.038;6.280;2022-08-05T13:43:56;3.70;;;1.85;;
25153;SDS011;47555;51.038;6.280;2022-08-05T13:46:22;2.45;;;1.70;;
25153;SDS011;47555;51.038;6.280;2022-08-05T13:48:48;2.38;;;2.17;;
25153;SDS011;47555;51.038;6.280;2022-08-05T13:51:14;3.33;;;1.60;;
25153;SDS011;47555;51.038;6.280;2022-08-05T13:53:40;2.20;;;2.00;;
25153;SDS011;47555;51.038;6.280;2022-08-05T13:56:06;2.67;;;2.10;;
25153;SDS011;47555;51.038;6.280;2022-08-05T13:58:33;2.15;;;1.95;;
25153;SDS011;47555;51.038;6.280;2022-08-05T14:00:59;1.98;;;1.83;;
25153;SDS011;47555;51.038;6.280;2022-08-05T14:03:25;3.25;;;1.80;;
25153;SDS011;47555;51.038;6.280;2022-08-05T14:05:54;3.28;;;2.40;;
25153;SDS011;47555;51.038;6.280;2022-08-05T14:08:19;4.13;;;2.20;;
25153;SDS011;47555;51.038;6.280;2022-08-05T14:10:45;3.92;;;1.92;;
25153;SDS011;47555;51.038;6.280;2022-08-05T14:13:11;3.75;;;2.20;;
25153;SDS011;47555;51.038;6.280;2022-08-05T14:15:36;2.50;;;2.05;;
25153;SDS011;47555;51.038;6.280;2022-08-05T14:18:02;4.28;;;1.88;;
25153;SDS011;47555;51.038;6.280;2022-08-05T14:20:28;2.95;;;2.13;;
25153;SDS011;47555;51.038;6.280;2022-08-05T14:22:55;4.43;;;2.00;;
25153;SDS011;47555;51.038;6.280;2022-08-05T14:25:22;2.47;;;1.90;;
25153;SDS011;47555;51.038;6.280;2022-08-05T14:27:48;4.28;;;1.95;;
25153;SDS011;47555;51.038;6.280;2022-08-05T14:30:15;1.90;;;1.42;;
25153;SDS011;47555;51.038;6.280;2022-08-05T14:32:41;3.80;;;1.83;;
25153;SDS011;47555;51.038;6.280;2022-08-05T14:35:07;4.22;;;1.30;;
25153;SDS011;47555;51.038;6.280;2022-08-05T14:37:33;1.50;;;1.17;;
25153;SDS011;47555;51.038;6.280;2022-08-05T14:39:58;2.25;;;1.20;;
25153;SDS011;47555;51.038;6.280;2022-08-05T14:42:24;1.50;;;1.30;;
25153;SDS011;47555;51.038;6.280;2022-08-05T14:44:50;1.58;;;1.30;;
25153;SDS011;47555;51.038;6.280;2022-08-05T14:47:16;1.50;;;1.40;;
25153;SDS011;47555;51.038;6.280;2022-08-05T14:49:42;3.67;;;1.25;;
25153;SDS011;47555;51.038;6.280;2022-08-05T14:52:07;2.40;;;1.40;;
25153;SDS011;47555;51.038;6.280;2022-08-05T14:54:35;2.67;;;1.65;;
25153;SDS011;47555;51.038;6.280;2022-08-05T14:57:01;1.90;;;1.30;;
25153;SDS011;47555;51.038;6.280;2022-08-05T14:59:27;1.85;;;1.23;;
25153;SDS011;47555;51.038;6.280;2022-08-05T15:01:53;1.10;;;1.00;;
25153;SDS011;47555;51.038;6.280;2022-08-05T15:04:19;1.40;;;1.30;;
25153;SDS011;47555;51.038;6.280;2022-08-05T15:06:45;1.92;;;1.20;;
25153;SDS011;47555;51.038;6.280;2022-08-05T15:09:11;1.83;;;1.30;;
25153;SDS011;47555;51.038;6.280;2022-08-05T15:11:36;1.88;;;1.30;;
25153;SDS011;47555;51.038;6.280;2022-08-05T15:14:02;3.33;;;1.52;;
25153;SDS011;47555;51.038;6.280;2022-08-05T15:16:28;3.75;;;1.23;;
25153;SDS011;47555;51.038;6.280;2022-08-05T15:18:54;2.63;;;1.13;;
25153;SDS011;47555;51.038;6.280;2022-08-05T15:21:20;2.15;;;1.20;;
25153;SDS011;47555;51.038;6.280;2022-08-05T15:23:45;1.20;;;1.10;;
25153;SDS011;47555;51.038;6.280;2022-08-05T15:26:11;1.70;;;1.20;;
25153;SDS011;47555;51.038;6.280;2022-08-05T15:28:36;3.40;;;1.50;;
25153;SDS011;47555;51.038;6.280;2022-08-05T15:31:02;2.15;;;1.40;;
25153;SDS011;47555;51.038;6.280;2022-08-05T15:33:27;1.75;;;1.10;;